sensor_id;sensor_type;location;lat;lon;timestamp;pressure;altitude;pressure_sealevel;temperature;humidity
72587;BME280;60621;49.576;11.024;2023-03-01T00:00:38;99276.28;;;0.51;61.16
72587;BME280;60621;49.576;11.024;2023-03-01T00:01:40;99269.81;;;0.54;61.17
72587;BME280;60621;49.576;11.024;2023-03-01T00:02:41;99275.00;;;0.59;61.46
72587;BME280;60621;49.576;11.024;2023-03-01T00:03:43;99271.63;;;0.59;61.13
72587;BME280;60621;49.576;11.024;2023-03-01T00:04:45;99267.97;;;0.60;60.69
72587;BME280;60621;49.576;11.024;2023-03-01T00:05:46;99268.22;;;0.63;60.82
72587;BME280;60621;49.576;11.024;2023-03-01T00:06:48;99269.53;;;0.61;60.47
72587;BME280;60621;49.576;11.024;2023-03-01T00:07:52;99276.03;;;0.58;60.98
72587;BME280;60621;49.576;11.024;2023-03-01T00:08:54;99279.66;;;0.62;60.69
72587;BME280;60621;49.576;11.024;2023-03-01T00:09:55;99280.16;;;0.64;60.56
72587;BME280;60621;49.576;11.024;2023-03-01T00:12:08;99268.47;;;0.62;60.52
72587;BME280;60621;49.576;11.024;2023-03-01T00:13:10;99271.88;;;0.57;61.16
72587;BME280;60621;49.576;11.024;2023-03-01T00:14:12;99269.53;;;0.56;61.18
72587;BME280;60621;49.576;11.024;2023-03-01T00:15:14;99280.47;;;0.53;61.18
72587;BME280;60621;49.576;11.024;2023-03-01T00:16:24;99270.88;;;0.53;61.39
72587;BME280;60621;49.576;11.024;2023-03-01T00:17:27;99276.28;;;0.57;61.22
72587;BME280;60621;49.576;11.024;2023-03-01T00:18:29;99271.38;;;0.55;61.31
72587;BME280;60621;49.576;11.024;2023-03-01T00:19:30;99273.97;;;0.55;61.67
72587;BME280;60621;49.576;11.024;2023-03-01T00:20:34;99268.25;;;0.53;61.70
72587;BME280;60621;49.576;11.024;2023-03-01T00:21:36;99268.78;;;0.50;61.68
72587;BME280;60621;49.576;11.024;2023-03-01T00:22:37;99270.59;;;0.55;61.25
72587;BME280;60621;49.576;11.024;2023-03-01T00:23:39;99275.50;;;0.56;61.17
72587;BME280;60621;49.576;11.024;2023-03-01T00:24:40;99269.78;;;0.59;61.03
72587;BME280;60621;49.576;11.024;2023-03-01T00:25:43;99270.56;;;0.60;61.24
72587;BME280;60621;49.576;11.024;2023-03-01T00:26:44;99265.41;;;0.55;61.51
72587;BME280;60621;49.576;11.024;2023-03-01T00:27:46;99263.31;;;0.57;61.48
72587;BME280;60621;49.576;11.024;2023-03-01T00:28:48;99261.00;;;0.50;61.60
72587;BME280;60621;49.576;11.024;2023-03-01T00:29:51;99260.00;;;0.36;61.91
72587;BME280;60621;49.576;11.024;2023-03-01T00:30:53;99265.16;;;0.41;62.59
72587;BME280;60621;49.576;11.024;2023-03-01T00:31:55;99256.88;;;0.44;61.57
72587;BME280;60621;49.576;11.024;2023-03-01T00:32:56;99260.22;;;0.44;61.71
72587;BME280;60621;49.576;11.024;2023-03-01T00:34:00;99265.13;;;0.51;61.22
72587;BME280;60621;49.576;11.024;2023-03-01T00:35:02;99259.44;;;0.54;60.99
72587;BME280;60621;49.576;11.024;2023-03-01T00:36:04;99264.34;;;0.56;61.05
72587;BME280;60621;49.576;11.024;2023-03-01T00:37:06;99261.75;;;0.50;61.44
72587;BME280;60621;49.576;11.024;2023-03-01T00:38:08;99258.38;;;0.55;61.17
72587;BME280;60621;49.576;11.024;2023-03-01T00:39:13;99258.34;;;0.65;61.04
72587;BME280;60621;49.576;11.024;2023-03-01T00:40:14;99258.09;;;0.67;61.35
72587;BME280;60621;49.576;11.024;2023-03-01T00:41:19;99258.59;;;0.69;60.93
72587;BME280;60621;49.576;11.024;2023-03-01T00:42:21;99245.91;;;0.62;61.07
72587;BME280;60621;49.576;11.024;2023-03-01T00:43:23;99250.81;;;0.69;60.91
72587;BME280;60621;49.576;11.024;2023-03-01T00:44:24;99250.81;;;0.64;60.73
72587;BME280;60621;49.576;11.024;2023-03-01T00:45:26;99254.19;;;0.64;60.50
72587;BME280;60621;49.576;11.024;2023-03-01T00:46:28;99252.09;;;0.66;60.88
72587;BME280;60621;49.576;11.024;2023-03-01T00:47:31;99254.75;;;0.56;60.63
72587;BME280;60621;49.576;11.024;2023-03-01T00:48:33;99257.09;;;0.58;60.76
72587;BME280;60621;49.576;11.024;2023-03-01T00:49:35;99252.63;;;0.68;61.00
72587;BME280;60621;49.576;11.024;2023-03-01T00:50:37;99261.44;;;0.72;60.48
72587;BME280;60621;49.576;11.024;2023-03-01T00:51:38;99257.28;;;0.76;60.57
72587;BME280;60621;49.576;11.024;2023-03-01T00:52:42;99260.38;;;0.79;60.49
72587;BME280;60621;49.576;11.024;2023-03-01T00:53:44;99251.03;;;0.77;60.30
72587;BME280;60621;49.576;11.024;2023-03-01T00:54:46;99259.84;;;0.82;60.33
72587;BME280;60621;49.576;11.024;2023-03-01T00:55:47;99256.47;;;0.81;60.28
72587;BME280;60621;49.576;11.024;2023-03-01T00:56:49;99252.84;;;0.82;59.80
72587;BME280;60621;49.576;11.024;2023-03-01T00:57:51;99244.28;;;0.76;59.95
72587;BME280;60621;49.576;11.024;2023-03-01T00:58:52;99251.84;;;0.73;60.40
72587;BME280;60621;49.576;11.024;2023-03-01T00:59:54;99246.63;;;0.78;60.15
72587;BME280;60621;49.576;11.024;2023-03-01T01:00:55;99240.09;;;0.81;60.18
72587;BME280;60621;49.576;11.024;2023-03-01T01:01:57;99243.50;;;0.71;60.48
72587;BME280;60621;49.576;11.024;2023-03-01T01:03:00;99239.91;;;0.72;60.50
72587;BME280;60621;49.576;11.024;2023-03-01T01:04:10;99238.06;;;0.72;60.21
72587;BME280;60621;49.576;11.024;2023-03-01T01:05:13;99235.44;;;0.77;60.05
72587;BME280;60621;49.576;11.024;2023-03-01T01:06:20;99240.13;;;0.75;59.39
72587;BME280;60621;49.576;11.024;2023-03-01T01:07:21;99233.94;;;0.71;60.05
72587;BME280;60621;49.576;11.024;2023-03-01T01:08:23;99230.78;;;0.74;60.11
72587;BME280;60621;49.576;11.024;2023-03-01T01:09:24;99234.16;;;0.75;59.86
72587;BME280;60621;49.576;11.024;2023-03-01T01:10:26;99226.63;;;0.79;60.19
72587;BME280;60621;49.576;11.024;2023-03-01T01:11:29;99225.84;;;0.78;60.05
72587;BME280;60621;49.576;11.024;2023-03-01T01:12:30;99223.53;;;0.71;60.08
72587;BME280;60621;49.576;11.024;2023-03-01T01:13:32;99229.50;;;0.72;60.16
72587;BME280;60621;49.576;11.024;2023-03-01T01:14:35;99223.00;;;0.74;60.38
72587;BME280;60621;49.576;11.024;2023-03-01T01:15:36;99228.44;;;0.78;60.00
72587;BME280;60621;49.576;11.024;2023-03-01T01:16:38;99227.66;;;0.77;59.87
72587;BME280;60621;49.576;11.024;2023-03-01T01:17:40;99221.13;;;0.80;59.98
72587;BME280;60621;49.576;11.024;2023-03-01T01:18:42;99226.34;;;0.80;59.71
72587;BME280;60621;49.576;11.024;2023-03-01T01:19:44;99218.81;;;0.79;59.78
72587;BME280;60621;49.576;11.024;2023-03-01T01:20:45;99221.72;;;0.72;59.99
72587;BME280;60621;49.576;11.024;2023-03-01T01:21:47;99218.84;;;0.73;59.82
72587;BME280;60621;49.576;11.024;2023-03-01T01:22:49;99213.38;;;0.75;60.24
72587;BME280;60621;49.576;11.024;2023-03-01T01:23:52;99213.91;;;0.77;59.63
72587;BME280;60621;49.576;11.024;2023-03-01T01:24:54;99219.06;;;0.82;59.94
72587;BME280;60621;49.576;11.024;2023-03-01T01:25:55;99208.41;;;0.84;59.70
72587;BME280;60621;49.576;11.024;2023-03-01T01:26:57;99210.28;;;0.73;59.91
72587;BME280;60621;49.576;11.024;2023-03-01T01:27:59;99209.78;;;0.66;59.97
72587;BME280;60621;49.576;11.024;2023-03-01T01:29:02;99209.81;;;0.61;60.29
72587;BME280;60621;49.576;11.024;2023-03-01T01:30:04;99204.34;;;0.62;60.39
72587;BME280;60621;49.576;11.024;2023-03-01T01:31:06;99199.91;;;0.68;59.80
72587;BME280;60621;49.576;11.024;2023-03-01T01:32:08;99206.63;;;0.74;59.50
72587;BME280;60621;49.576;11.024;2023-03-01T01:33:09;99200.91;;;0.77;59.78
72587;BME280;60621;49.576;11.024;2023-03-01T01:34:16;99197.53;;;0.76;59.43
72587;BME280;60621;49.576;11.024;2023-03-01T01:35:18;99198.34;;;0.72;59.74
72587;BME280;60621;49.576;11.024;2023-03-01T01:36:20;99194.97;;;0.71;59.63
72587;BME280;60621;49.576;11.024;2023-03-01T01:37:22;99193.91;;;0.72;59.39
72587;BME280;60621;49.576;11.024;2023-03-01T01:38:23;99203.75;;;0.75;59.55
72587;BME280;60621;49.576;11.024;2023-03-01T01:39:24;99193.38;;;0.75;59.78
72587;BME280;60621;49.576;11.024;2023-03-01T01:40:26;99187.94;;;0.77;59.62
72587;BME280;60621;49.576;11.024;2023-03-01T01:41:28;99184.78;;;0.80;59.52
72587;BME280;60621;49.576;11.024;2023-03-01T01:42:30;99189.97;;;0.80;59.65
72587;BME280;60621;49.576;11.024;2023-03-01T01:43:41;99189.41;;;0.88;59.73
72587;BME280;60621;49.576;11.024;2023-03-01T01:44:46;99182.66;;;0.87;59.41
72587;BME280;60621;49.576;11.024;2023-03-01T01:45:48;99192.28;;;0.87;59.64
72587;BME280;60621;49.576;11.024;2023-03-01T01:46:55;99184.53;;;0.82;59.45
72587;BME280;60621;49.576;11.024;2023-03-01T01:48:07;99184.03;;;0.74;59.34
72587;BME280;60621;49.576;11.024;2023-03-01T01:49:29;99184.81;;;0.75;59.12
72587;BME280;60621;49.576;11.024;2023-03-01T01:50:33;99185.31;;;0.77;59.46
72587;BME280;60621;49.576;11.024;2023-03-01T01:51:42;99187.66;;;0.79;59.68
72587;BME280;60621;49.576;11.024;2023-03-01T01:52:46;99188.97;;;0.76;59.87
72587;BME280;60621;49.576;11.024;2023-03-01T01:53:54;99180.88;;;0.83;59.59
72587;BME280;60621;49.576;11.024;2023-03-01T01:55:02;99177.75;;;0.86;59.44
72587;BME280;60621;49.576;11.024;2023-03-01T01:56:07;99183.97;;;0.85;59.26
72587;BME280;60621;49.576;11.024;2023-03-01T01:57:18;99185.81;;;0.79;59.61
72587;BME280;60621;49.576;11.024;2023-03-01T01:58:21;99182.19;;;0.80;59.30
72587;BME280;60621;49.576;11.024;2023-03-01T01:59:24;99176.53;;;0.68;59.68
72587;BME280;60621;49.576;11.024;2023-03-01T02:00:28;99177.00;;;0.75;59.50
72587;BME280;60621;49.576;11.024;2023-03-01T02:01:30;99173.41;;;0.76;59.33
72587;BME280;60621;49.576;11.024;2023-03-01T02:02:31;99176.00;;;0.76;59.29
72587;BME280;60621;49.576;11.024;2023-03-01T02:03:36;99171.31;;;0.73;60.24
72587;BME280;60621;49.576;11.024;2023-03-01T02:04:42;99174.72;;;0.68;60.68
72587;BME280;60621;49.576;11.024;2023-03-01T02:07:13;99168.78;;;0.63;60.39
72587;BME280;60621;49.576;11.024;2023-03-01T02:08:17;99167.00;;;0.53;60.61
72587;BME280;60621;49.576;11.024;2023-03-01T02:09:21;99166.47;;;0.51;60.56
72587;BME280;60621;49.576;11.024;2023-03-01T02:10:24;99164.16;;;0.49;60.78
72587;BME280;60621;49.576;11.024;2023-03-01T02:11:27;99165.72;;;0.50;60.65
72587;BME280;60621;49.576;11.024;2023-03-01T02:12:30;99163.63;;;0.53;60.76
72587;BME280;60621;49.576;11.024;2023-03-01T02:13:33;99159.75;;;0.50;60.71
72587;BME280;60621;49.576;11.024;2023-03-01T02:14:35;99161.53;;;0.55;60.78
72587;BME280;60621;49.576;11.024;2023-03-01T02:15:38;99158.97;;;0.49;60.81
72587;BME280;60621;49.576;11.024;2023-03-01T02:16:40;99157.41;;;0.54;60.64
72587;BME280;60621;49.576;11.024;2023-03-01T02:17:43;99167.22;;;0.57;60.32
72587;BME280;60621;49.576;11.024;2023-03-01T02:18:45;99157.66;;;0.57;60.56
72587;BME280;60621;49.576;11.024;2023-03-01T02:22:28;99155.28;;;0.61;60.26
72587;BME280;60621;49.576;11.024;2023-03-01T02:23:32;99151.94;;;0.55;60.27
72587;BME280;60621;49.576;11.024;2023-03-01T02:26:20;99154.06;;;0.48;60.88
72587;BME280;60621;49.576;11.024;2023-03-01T02:27:26;99158.22;;;0.44;60.79
72587;BME280;60621;49.576;11.024;2023-03-01T02:28:37;99152.75;;;0.45;60.70
72587;BME280;60621;49.576;11.024;2023-03-01T02:29:39;99148.66;;;0.34;60.55
72587;BME280;60621;49.576;11.024;2023-03-01T02:30:47;99156.16;;;0.41;60.52
72587;BME280;60621;49.576;11.024;2023-03-01T02:32:07;99149.16;;;0.36;60.63
72587;BME280;60621;49.576;11.024;2023-03-01T02:33:09;99148.38;;;0.36;60.32
72587;BME280;60621;49.576;11.024;2023-03-01T02:34:16;99150.75;;;0.27;61.36
72587;BME280;60621;49.576;11.024;2023-03-01T02:35:20;99143.22;;;0.25;61.39
72587;BME280;60621;49.576;11.024;2023-03-01T02:36:26;99146.84;;;0.30;61.37
72587;BME280;60621;49.576;11.024;2023-03-01T02:37:30;99146.28;;;0.38;61.19
72587;BME280;60621;49.576;11.024;2023-03-01T02:38:32;99140.34;;;0.27;60.81
72587;BME280;60621;49.576;11.024;2023-03-01T02:39:39;99144.00;;;0.26;61.28
72587;BME280;60621;49.576;11.024;2023-03-01T02:40:43;99135.94;;;0.28;61.04
72587;BME280;60621;49.576;11.024;2023-03-01T02:41:48;99132.06;;;0.30;61.16
72587;BME280;60621;49.576;11.024;2023-03-01T02:42:54;99141.38;;;0.31;61.05
72587;BME280;60621;49.576;11.024;2023-03-01T02:43:57;99139.56;;;0.32;61.04
72587;BME280;60621;49.576;11.024;2023-03-01T02:44:59;99134.94;;;0.29;60.84
72587;BME280;60621;49.576;11.024;2023-03-01T02:46:08;99142.50;;;0.15;61.33
72587;BME280;60621;49.576;11.024;2023-03-01T02:47:09;99136.28;;;0.11;61.67
72587;BME280;60621;49.576;11.024;2023-03-01T02:48:11;99133.41;;;0.17;61.21
72587;BME280;60621;49.576;11.024;2023-03-01T02:49:26;99142.72;;;0.18;61.66
72587;BME280;60621;49.576;11.024;2023-03-01T02:51:38;99133.91;;;0.24;61.27
72587;BME280;60621;49.576;11.024;2023-03-01T02:53:08;99137.75;;;0.32;60.90
72587;BME280;60621;49.576;11.024;2023-03-01T02:54:17;99136.22;;;0.26;61.28
72587;BME280;60621;49.576;11.024;2023-03-01T02:55:22;99125.31;;;0.29;61.16
72587;BME280;60621;49.576;11.024;2023-03-01T02:56:24;99131.31;;;0.24;61.05
72587;BME280;60621;49.576;11.024;2023-03-01T02:57:28;99129.75;;;0.18;61.67
72587;BME280;60621;49.576;11.024;2023-03-01T02:58:30;99131.09;;;0.11;62.01
72587;BME280;60621;49.576;11.024;2023-03-01T02:59:34;99131.34;;;0.14;62.08
72587;BME280;60621;49.576;11.024;2023-03-01T03:00:42;99133.94;;;0.14;61.67
72587;BME280;60621;49.576;11.024;2023-03-01T03:01:48;99129.78;;;0.13;61.63
72587;BME280;60621;49.576;11.024;2023-03-01T03:02:51;99131.06;;;0.16;61.80
72587;BME280;60621;49.576;11.024;2023-03-01T03:03:53;99126.66;;;0.16;61.54
72587;BME280;60621;49.576;11.024;2023-03-01T03:04:54;99124.53;;;0.23;61.45
72587;BME280;60621;49.576;11.024;2023-03-01T03:05:57;99126.63;;;0.21;61.42
72587;BME280;60621;49.576;11.024;2023-03-01T03:06:58;99125.09;;;0.20;61.43
72587;BME280;60621;49.576;11.024;2023-03-01T03:08:02;99127.94;;;0.19;61.41
72587;BME280;60621;49.576;11.024;2023-03-01T03:09:04;99132.09;;;0.20;61.48
72587;BME280;60621;49.576;11.024;2023-03-01T03:10:10;99124.84;;;0.17;61.69
72587;BME280;60621;49.576;11.024;2023-03-01T03:11:12;99126.38;;;0.18;61.80
72587;BME280;60621;49.576;11.024;2023-03-01T03:12:13;99125.59;;;0.17;61.26
72587;BME280;60621;49.576;11.024;2023-03-01T03:13:15;99125.34;;;0.19;61.91
72587;BME280;60621;49.576;11.024;2023-03-01T03:14:17;99122.25;;;0.17;61.04
72587;BME280;60621;49.576;11.024;2023-03-01T03:15:20;99124.56;;;0.18;61.71
72587;BME280;60621;49.576;11.024;2023-03-01T03:16:22;99124.03;;;0.21;61.64
72587;BME280;60621;49.576;11.024;2023-03-01T03:17:23;99125.59;;;0.22;62.05
72587;BME280;60621;49.576;11.024;2023-03-01T03:18:25;99121.69;;;0.25;61.50
72587;BME280;60621;49.576;11.024;2023-03-01T03:19:27;99122.47;;;0.25;61.91
72587;BME280;60621;49.576;11.024;2023-03-01T03:20:28;99113.63;;;0.27;61.91
72587;BME280;60621;49.576;11.024;2023-03-01T03:21:32;99112.88;;;0.26;62.14
72587;BME280;60621;49.576;11.024;2023-03-01T03:22:34;99119.59;;;0.27;61.89
72587;BME280;60621;49.576;11.024;2023-03-01T03:23:36;99115.22;;;0.22;61.60
72587;BME280;60621;49.576;11.024;2023-03-01T03:24:37;99120.66;;;0.21;61.49
72587;BME280;60621;49.576;11.024;2023-03-01T03:25:39;99119.13;;;0.20;61.47
72587;BME280;60621;49.576;11.024;2023-03-01T03:26:41;99113.94;;;0.20;61.77
72587;BME280;60621;49.576;11.024;2023-03-01T03:27:44;99110.00;;;0.22;61.70
72587;BME280;60621;49.576;11.024;2023-03-01T03:28:46;99113.38;;;0.23;61.64
72587;BME280;60621;49.576;11.024;2023-03-01T03:29:47;99115.47;;;0.21;61.67
72587;BME280;60621;49.576;11.024;2023-03-01T03:30:49;99112.66;;;0.12;61.50
72587;BME280;60621;49.576;11.024;2023-03-01T03:31:51;99109.53;;;0.15;61.23
72587;BME280;60621;49.576;11.024;2023-03-01T03:32:53;99112.34;;;0.19;60.93
72587;BME280;60621;49.576;11.024;2023-03-01T03:33:54;99114.72;;;0.20;60.95
72587;BME280;60621;49.576;11.024;2023-03-01T03:34:57;99116.78;;;0.18;61.07
72587;BME280;60621;49.576;11.024;2023-03-01T03:35:58;99112.63;;;0.17;61.26
72587;BME280;60621;49.576;11.024;2023-03-01T03:37:00;99111.31;;;0.25;61.13
72587;BME280;60621;49.576;11.024;2023-03-01T03:38:05;99119.88;;;0.25;60.85
72587;BME280;60621;49.576;11.024;2023-03-01T03:39:07;99112.13;;;0.20;60.75
72587;BME280;60621;49.576;11.024;2023-03-01T03:40:09;99117.56;;;0.24;60.72
72587;BME280;60621;49.576;11.024;2023-03-01T03:41:17;99113.38;;;0.23;60.43
72587;BME280;60621;49.576;11.024;2023-03-01T03:42:18;99108.19;;;0.23;60.74
72587;BME280;60621;49.576;11.024;2023-03-01T03:43:22;99114.97;;;0.24;60.81
72587;BME280;60621;49.576;11.024;2023-03-01T03:44:24;99112.88;;;0.26;60.79
72587;BME280;60621;49.576;11.024;2023-03-01T03:45:25;99104.81;;;0.28;60.80
72587;BME280;60621;49.576;11.024;2023-03-01T03:46:27;99099.88;;;0.26;60.36
72587;BME280;60621;49.576;11.024;2023-03-01T03:47:28;99102.22;;;0.28;60.49
72587;BME280;60621;49.576;11.024;2023-03-01T03:48:30;99107.94;;;0.30;60.01
72587;BME280;60621;49.576;11.024;2023-03-01T03:49:31;99101.19;;;0.29;60.57
72587;BME280;60621;49.576;11.024;2023-03-01T03:50:33;99103.78;;;0.29;60.57
72587;BME280;60621;49.576;11.024;2023-03-01T03:51:35;99104.28;;;0.31;60.38
72587;BME280;60621;49.576;11.024;2023-03-01T03:52:36;99100.34;;;0.33;60.00
72587;BME280;60621;49.576;11.024;2023-03-01T03:53:38;99099.09;;;0.31;60.50
72587;BME280;60621;49.576;11.024;2023-03-01T03:54:40;99102.19;;;0.33;60.15
72587;BME280;60621;49.576;11.024;2023-03-01T03:55:42;99108.16;;;0.38;60.00
72587;BME280;60621;49.576;11.024;2023-03-01T03:56:45;99106.34;;;0.34;59.63
72587;BME280;60621;49.576;11.024;2023-03-01T03:57:47;99116.72;;;0.39;59.97
72587;BME280;60621;49.576;11.024;2023-03-01T03:58:55;99105.31;;;0.35;59.60
72587;BME280;60621;49.576;11.024;2023-03-01T03:59:57;99108.41;;;0.37;59.68
72587;BME280;60621;49.576;11.024;2023-03-01T04:00:59;99102.69;;;0.40;59.72
72587;BME280;60621;49.576;11.024;2023-03-01T04:02:02;99107.63;;;0.36;59.80
72587;BME280;60621;49.576;11.024;2023-03-01T04:03:04;99110.19;;;0.41;60.06
72587;BME280;60621;49.576;11.024;2023-03-01T04:04:05;99114.88;;;0.39;60.36
72587;BME280;60621;49.576;11.024;2023-03-01T04:05:09;99101.56;;;0.51;59.59
72587;BME280;60621;49.576;11.024;2023-03-01T04:06:11;99109.38;;;0.51;59.58
72587;BME280;60621;49.576;11.024;2023-03-01T04:07:12;99109.66;;;0.44;59.71
72587;BME280;60621;49.576;11.024;2023-03-01T04:08:14;99101.59;;;0.46;59.90
72587;BME280;60621;49.576;11.024;2023-03-01T04:09:15;99113.81;;;0.45;59.47
72587;BME280;60621;49.576;11.024;2023-03-01T04:10:18;99108.91;;;0.39;59.87
72587;BME280;60621;49.576;11.024;2023-03-01T04:11:20;99106.81;;;0.41;60.06
72587;BME280;60621;49.576;11.024;2023-03-01T04:12:27;99110.47;;;0.40;59.86
72587;BME280;60621;49.576;11.024;2023-03-01T04:13:28;99107.31;;;0.48;59.44
72587;BME280;60621;49.576;11.024;2023-03-01T04:14:30;99099.75;;;0.51;59.24
72587;BME280;60621;49.576;11.024;2023-03-01T04:15:32;99104.72;;;0.48;59.46
72587;BME280;60621;49.576;11.024;2023-03-01T04:16:34;99103.16;;;0.47;59.14
72587;BME280;60621;49.576;11.024;2023-03-01T04:17:36;99108.91;;;0.44;59.35
72587;BME280;60621;49.576;11.024;2023-03-01T04:18:37;99102.66;;;0.45;59.06
72587;BME280;60621;49.576;11.024;2023-03-01T04:19:39;99101.09;;;0.44;58.86
72587;BME280;60621;49.576;11.024;2023-03-01T04:20:41;99107.66;;;0.31;59.06
72587;BME280;60621;49.576;11.024;2023-03-01T04:21:43;99106.06;;;0.35;59.71
72587;BME280;60621;49.576;11.024;2023-03-01T04:22:45;99115.63;;;0.45;59.42
72587;BME280;60621;49.576;11.024;2023-03-01T04:23:48;99111.47;;;0.49;59.36
72587;BME280;60621;49.576;11.024;2023-03-01T04:24:49;99109.63;;;0.49;59.09
72587;BME280;60621;49.576;11.024;2023-03-01T04:25:53;99114.59;;;0.41;59.18
72587;BME280;60621;49.576;11.024;2023-03-01T04:26:56;99120.06;;;0.39;59.50
72587;BME280;60621;49.576;11.024;2023-03-01T04:27:57;99116.72;;;0.39;59.22
72587;BME280;60621;49.576;11.024;2023-03-01T04:28:59;99116.41;;;0.45;58.88
72587;BME280;60621;49.576;11.024;2023-03-01T04:30:02;99119.28;;;0.44;59.17
72587;BME280;60621;49.576;11.024;2023-03-01T04:31:07;99111.22;;;0.45;59.17
72587;BME280;60621;49.576;11.024;2023-03-01T04:32:15;99119.81;;;0.36;59.39
72587;BME280;60621;49.576;11.024;2023-03-01T04:33:18;99113.84;;;0.40;59.50
72587;BME280;60621;49.576;11.024;2023-03-01T04:34:19;99112.53;;;0.43;59.62
72587;BME280;60621;49.576;11.024;2023-03-01T04:35:21;99114.88;;;0.39;59.75
72587;BME280;60621;49.576;11.024;2023-03-01T04:36:26;99112.28;;;0.39;59.96
72587;BME280;60621;49.576;11.024;2023-03-01T04:37:28;99118.47;;;0.48;59.61
72587;BME280;60621;49.576;11.024;2023-03-01T04:38:30;99117.72;;;0.48;59.32
72587;BME280;60621;49.576;11.024;2023-03-01T04:39:32;99113.28;;;0.48;59.19
72587;BME280;60621;49.576;11.024;2023-03-01T04:40:34;99120.06;;;0.44;59.57
72587;BME280;60621;49.576;11.024;2023-03-01T04:41:36;99120.38;;;0.28;59.58
72587;BME280;60621;49.576;11.024;2023-03-01T04:42:37;99119.09;;;0.25;60.26
72587;BME280;60621;49.576;11.024;2023-03-01T04:43:39;99111.84;;;0.22;59.97
72587;BME280;60621;49.576;11.024;2023-03-01T04:44:40;99114.41;;;0.27;60.12
72587;BME280;60621;49.576;11.024;2023-03-01T04:45:42;99114.72;;;0.20;60.41
72587;BME280;60621;49.576;11.024;2023-03-01T04:46:44;99120.94;;;0.24;60.30
72587;BME280;60621;49.576;11.024;2023-03-01T04:47:46;99114.16;;;0.29;59.92
72587;BME280;60621;49.576;11.024;2023-03-01T04:48:48;99119.06;;;0.35;60.06
72587;BME280;60621;49.576;11.024;2023-03-01T04:49:50;99117.47;;;0.39;60.19
72587;BME280;60621;49.576;11.024;2023-03-01T04:50:51;99115.13;;;0.43;60.10
72587;BME280;60621;49.576;11.024;2023-03-01T04:51:53;99110.94;;;0.47;60.03
72587;BME280;60621;49.576;11.024;2023-03-01T04:52:55;99114.56;;;0.51;59.82
72587;BME280;60621;49.576;11.024;2023-03-01T04:53:59;99113.50;;;0.52;59.47
72587;BME280;60621;49.576;11.024;2023-03-01T04:55:02;99118.22;;;0.45;59.48
72587;BME280;60621;49.576;11.024;2023-03-01T04:56:04;99110.72;;;0.43;59.17
72587;BME280;60621;49.576;11.024;2023-03-01T04:57:06;99114.59;;;0.41;59.31
72587;BME280;60621;49.576;11.024;2023-03-01T04:58:07;99119.56;;;0.32;59.69
72587;BME280;60621;49.576;11.024;2023-03-01T04:59:10;99105.34;;;0.30;59.88
72587;BME280;60621;49.576;11.024;2023-03-01T05:00:14;99105.06;;;0.26;59.73
72587;BME280;60621;49.576;11.024;2023-03-01T05:01:21;99107.66;;;0.31;59.67
72587;BME280;60621;49.576;11.024;2023-03-01T05:02:23;99108.41;;;0.32;59.67
72587;BME280;60621;49.576;11.024;2023-03-01T05:03:25;99107.66;;;0.26;59.86
72587;BME280;60621;49.576;11.024;2023-03-01T05:04:26;99115.19;;;0.28;59.89
72587;BME280;60621;49.576;11.024;2023-03-01T05:05:31;99111.03;;;0.32;60.19
72587;BME280;60621;49.576;11.024;2023-03-01T05:06:33;99111.28;;;0.30;59.86
72587;BME280;60621;49.576;11.024;2023-03-01T05:07:35;99112.84;;;0.31;58.99
72587;BME280;60621;49.576;11.024;2023-03-01T05:08:38;99114.16;;;0.29;59.47
72587;BME280;60621;49.576;11.024;2023-03-01T05:09:39;99109.19;;;0.32;59.11
72587;BME280;60621;49.576;11.024;2023-03-01T05:10:41;99113.34;;;0.33;59.09
72587;BME280;60621;49.576;11.024;2023-03-01T05:11:43;99110.56;;;0.19;59.48
72587;BME280;60621;49.576;11.024;2023-03-01T05:12:44;99120.69;;;0.16;59.69
72587;BME280;60621;49.576;11.024;2023-03-01T05:13:47;99117.31;;;0.15;60.27
72587;BME280;60621;49.576;11.024;2023-03-01T05:14:51;99116.03;;;0.13;60.52
72587;BME280;60621;49.576;11.024;2023-03-01T05:15:57;99116.00;;;0.18;60.24
72587;BME280;60621;49.576;11.024;2023-03-01T05:16:59;99117.03;;;0.22;60.33
72587;BME280;60621;49.576;11.024;2023-03-01T05:18:05;99116.50;;;0.25;60.40
72587;BME280;60621;49.576;11.024;2023-03-01T05:19:12;99113.13;;;0.30;59.85
72587;BME280;60621;49.576;11.024;2023-03-01T05:20:16;99113.59;;;0.32;60.14
72587;BME280;60621;49.576;11.024;2023-03-01T05:21:18;99116.75;;;0.29;60.02
72587;BME280;60621;49.576;11.024;2023-03-01T05:22:20;99118.56;;;0.28;60.43
72587;BME280;60621;49.576;11.024;2023-03-01T05:23:22;99109.50;;;0.25;60.23
72587;BME280;60621;49.576;11.024;2023-03-01T05:24:24;99107.41;;;0.22;59.81
72587;BME280;60621;49.576;11.024;2023-03-01T05:25:26;99120.41;;;0.22;59.72
72587;BME280;60621;49.576;11.024;2023-03-01T05:26:28;99109.00;;;0.18;59.78
72587;BME280;60621;49.576;11.024;2023-03-01T05:27:29;99111.34;;;0.20;59.83
72587;BME280;60621;49.576;11.024;2023-03-01T05:28:32;99110.03;;;0.17;59.76
72587;BME280;60621;49.576;11.024;2023-03-01T05:29:33;99103.56;;;0.15;59.88
72587;BME280;60621;49.576;11.024;2023-03-01T05:30:36;99111.38;;;0.15;60.40
72587;BME280;60621;49.576;11.024;2023-03-01T05:31:40;99105.41;;;0.14;59.80
72587;BME280;60621;49.576;11.024;2023-03-01T05:32:43;99103.56;;;0.15;60.24
72587;BME280;60621;49.576;11.024;2023-03-01T05:33:45;99101.22;;;0.18;60.07
72587;BME280;60621;49.576;11.024;2023-03-01T05:34:47;99105.63;;;0.18;59.70
72587;BME280;60621;49.576;11.024;2023-03-01T05:35:49;99102.03;;;0.09;60.40
72587;BME280;60621;49.576;11.024;2023-03-01T05:36:52;99103.06;;;0.08;60.10
72587;BME280;60621;49.576;11.024;2023-03-01T05:37:54;99101.22;;;0.13;59.80
72587;BME280;60621;49.576;11.024;2023-03-01T05:38:55;99100.72;;;0.16;59.63
72587;BME280;60621;49.576;11.024;2023-03-01T05:39:57;99103.56;;;0.20;59.81
72587;BME280;60621;49.576;11.024;2023-03-01T05:40:59;99098.34;;;0.25;59.98
72587;BME280;60621;49.576;11.024;2023-03-01T05:42:01;99100.38;;;0.28;59.69